Los datos mostrados corresponden al resumen diario obtenido de los registros semihorarios entre las 0:00 y las 24:00 h, en horario solar.
| Estación | Fecha | V Km/h | DV | Vx Km/h | T ºC | Tn ºC | Tx ºC | H frío | HR % | Rad MJ/m2 día | H sol | P mm | ETo mm |
|---|---|---|---|---|---|---|---|---|---|---|---|---|---|
| Almoradí | 03/05/2026 | 2.51 | E | 13.09 | 19.23 | 15.45 | 25.8 | 0 | 82.1 | 18.74 | 10.34 | 0.21 | 3.43 |
| Elx | 03/05/2026 | 4.04 | N | 18.37 | 19.64 | 16.41 | 25.38 | 0 | 77.87 | 20.65 | 10.09 | 0.5 | 3.87 |
| Callosa d'En Sarrià | 03/05/2026 | 2.17 | NE | 12.91 | 18.1 | 16.02 | 22.92 | 0 | 78.4 | 13.42 | 8.45 | 0 | 2.62 |
| Callosa d'En Sarrià (malla) | 03/05/2026 | 1.28 | E | 9.81 | 18.24 | 15.75 | 23.86 | 0 | 61.39 | 10.66 | 7.58 | 0 | 2.27 |
| Catral | 03/05/2026 | 2.88 | NE | 12.91 | 19.35 | 14.85 | 26.1 | 0 | 78.7 | 19.57 | 10.23 | 0 | 3.62 |
| Altea | 03/05/2026 | 4.17 | E | 19.44 | 18.14 | 14.35 | 21.94 | 0 | 78.7 | 16.24 | 7.93 | 0 | 3.03 |
| Planes | 03/05/2026 | 0.87 | SE | 7.9 | 15.33 | 11.38 | 22.41 | 0 | 90.3 | 8.25 | 7.04 | 1.6 | 1.69 |
| Villena | 03/05/2026 | 5.85 | S | 19.4 | 16.51 | 13.91 | 22.61 | 0 | 84.9 | 12.7 | 6.38 | 5.13 | 2.79 |
| Camp de Mirra | 03/05/2026 | 5.85 | NE | 23.85 | 15.08 | 12.83 | 21.21 | 0 | 89.7 | 11.31 | 6.49 | 0.8 | 2.44 |
| Agost | 03/05/2026 | 3.46 | SE | 17.74 | 17.22 | 13.38 | 24.26 | 0 | 51.53 | 13.97 | 8.3 | 0 | 3.4 |
| Orihuela - La Murada | 03/05/2026 | 4.12 | E | 17.6 | 18.24 | 14.5 | 24.46 | 0 | 77.2 | 15.39 | 9.41 | 0 | 3.17 |
| Villajoyosa | 03/05/2026 | 2.94 | SE | 14.92 | 18.16 | 15.79 | 23.75 | 0 | 77.6 | 16.19 | 8.4 | 0 | 3.05 |
| Ondara | 03/05/2026 | 2.4 | N | 15.27 | 18.06 | 14.66 | 22.14 | 0 | 83.4 | 12.09 | 8.22 | 0.2 | 2.36 |
| Dénia | 03/05/2026 | 2.48 | O | 13.8 | 17.51 | 14.4 | 22.25 | 0 | 80 | 11.66 | 7.31 | 0 | 2.32 |
| Pinoso | 03/05/2026 | 5.66 | S | 23.57 | 15.24 | 13.02 | 21.57 | 0 | 88.8 | 11.96 | 6.62 | 1.39 | 2.56 |
| Monforte del Cid | 03/05/2026 | 5.06 | SE | 21.24 | 17.7 | 14.19 | 24.9 | 0 | 81.2 | 15.37 | 8.19 | 0.2 | 3.25 |
| Crevillent | 03/05/2026 | 3.68 | E | 15.1 | 19.3 | 16.52 | 25.05 | 0 | 76.7 | 16.59 | 9.78 | 0 | 3.36 |
| Vall d'Uixó | 03/05/2026 | 1.06 | E | 10.05 | 16.91 | 15.85 | 19.07 | 0 | 88.2 | 4.87 | 6.36 | 1 | 1.21 |
| Vila-real | 03/05/2026 | 4.28 | N | 14.63 | 17.62 | 16.29 | 19.29 | 0 | 87.7 | 6.19 | 6.33 | 2.4 | 1.57 |
| Onda | 03/05/2026 | 2.54 | NO | 12.24 | 16.34 | 15.52 | 17.66 | 0 | 94.4 | 3.84 | 4.49 | 3.58 | 1.04 |
| San Rafael del Río | 03/05/2026 | 3.26 | N | 13.55 | 15.37 | 12.98 | 20.5 | 0 | 91.8 | 11.5 | 7.08 | 17.37 | 2.26 |
| Castelló de la Plana | 03/05/2026 | 1.44 | NO | 10.41 | 16.89 | 15.75 | 19.65 | 0 | 90.6 | 6.66 | 6.33 | 3.78 | 1.46 |
| Ribera de Cabanes | 03/05/2026 | 2 | NO | 13.02 | 17.72 | 14.59 | 22.51 | 0 | 74.5 | 13.54 | 8.23 | 0.81 | 2.56 |
| Nules | 03/05/2026 | 2.76 | N | 12.6 | 17.41 | 16.06 | 20.19 | 0 | 88 | 6.29 | 6.72 | 0.4 | 1.5 |
| Segorbe | 03/05/2026 | 1.02 | SE | 8.68 | 14.46 | 12.82 | 16.11 | 0 | 94.9 | 3.04 | 2.69 | 3.53 | 0.9 |
| Pedralba | 03/05/2026 | 1.31 | SE | 12.77 | 15.98 | 14.61 | 19.03 | 0 | 94.4 | 4.38 | 4.34 | 5.94 | 1.14 |
| Benavites | 03/05/2026 | 2.26 | E | 11.61 | 17.1 | 15.15 | 20.55 | 0 | 88.1 | 6.92 | 7.24 | 0.4 | 1.61 |
| Moncada | 03/05/2026 | 5.14 | N | 18.37 | 18.27 | 16.62 | 21.4 | 0 | 81.1 | 11.76 | 8.45 | 0.2 | 2.54 |
| Carcaixent | 03/05/2026 | 2.47 | N | 13.07 | 18.66 | 16.49 | 23.44 | 0 | 84.2 | 10 | 9.41 | 0.2 | 2.16 |
| Carlet | 03/05/2026 | 2.85 | N | 13.66 | 17.81 | 16.32 | 22.07 | 0 | 89.5 | 8.68 | 6.74 | 2.3 | 1.98 |
| Llutxent | 03/05/2026 | 4.15 | N | 18.31 | 16.16 | 14.42 | 21.54 | 0 | 87.5 | 10.34 | 7.68 | 0 | 2.19 |
| Requena | 03/05/2026 | 5.83 | N | 15.9 | 13.43 | 12.53 | 15.38 | 0 | 94.7 | 5.34 | 6.38 | 9.5 | 1.17 |
| Algimia de Alfara | 03/05/2026 | 1.43 | E | 8.68 | 16.45 | 15.3 | 18.38 | 0 | 92.2 | 3.52 | 4.77 | 2.44 | 1.04 |
| Valencia - UPV | 03/05/2026 | 5.54 | E | 18.91 | 18.51 | 17.66 | 20.26 | 0 | 77.66 | 8.43 | 8.09 | 0 | 2.14 |
| Algemesí | 03/05/2026 | 2.4 | NE | 12.95 | 17.79 | 16.17 | 22.19 | 0 | 86.5 | 9.01 | 8.02 | 2.4 | 2 |
| Picassent | 03/05/2026 | 1.9 | E | 11.85 | 17.35 | 15.8 | 21.32 | 0 | 87.7 | 9.35 | 6.75 | 0.4 | 1.96 |
| Montesa | 03/05/2026 | 1.21 | NE | 10.44 | 16.63 | 15.35 | 20.77 | 0 | 89.1 | 7.11 | 6.9 | 6.2 | 1.56 |
| Xàtiva | 03/05/2026 | 1.94 | N | 10.83 | 17.64 | 15.95 | 22.4 | 0 | 86.9 | 8.45 | 7.71 | 0.4 | 1.84 |
| Llíria | 03/05/2026 | 2.06 | E | 15.38 | 15.83 | 14.06 | 18.88 | 0 | 92.4 | 4.48 | 5.49 | 2.93 | 1.17 |
| Sagunt | 03/05/2026 | 4.2 | NE | 12.84 | 17.71 | 16.2 | 20.66 | 0 | 82.1 | 9.06 | 7.68 | 1.21 | 2.07 |
| Campo Arcís | 03/05/2026 | 5.22 | E | 18.7 | 14.76 | 13.43 | 17.03 | 0 | 98.1 | 9.6 | 8.49 | 3.33 | 1.68 |
| Villalonga | 03/05/2026 | 1.55 | NE | 11.36 | 17.44 | 15.19 | 22.21 | 0 | 92.9 | 8.1 | 7.14 | 0.59 | 1.7 |
| Gandía | 03/05/2026 | 1.76 | N | 15.6 | 17.56 | 16.14 | 22.46 | 0 | 86.5 | 8.8 | 7.03 | 0.39 | 1.89 |
| Bolbaite | 03/05/2026 | 2.12 | NE | 12.52 | 16.13 | 14.49 | 19.33 | 0 | 93.6 | 5.21 | 5.06 | 3.09 | 1.28 |
| Bétera | 03/05/2026 | 4.59 | E | 15.17 | 17.53 | 16.21 | 20 | 0 | 84.2 | 9.04 | 7.7 | 1 | 1.98 |
| Chulilla | 03/05/2026 | 1.92 | E | 17.54 | 14.75 | 13.68 | 16.13 | 0 | 93.5 | 3.95 | 3.62 | 6.97 | 1.04 |
| Godelleta | 03/05/2026 | 1.49 | E | 9.91 | 16.04 | 15.12 | 18.5 | 0 | 94.5 | 4.51 | 5.29 | 5.03 | 1.19 |
| Bèlgida | 03/05/2026 | 2.82 | E | 15.42 | 16.34 | 13.68 | 21.82 | 0 | 90 | 9.02 | 8.39 | 0.2 | 1.92 |
| Polinyà de Xúquer | 03/05/2026 | 2.19 | E | 12 | 18.06 | 16.45 | 22.35 | 0 | 87.2 | 8.91 | 8.07 | 0.8 | 1.92 |
| Benifaió | 03/05/2026 | 2.12 | E | 14.75 | 17.76 | 16.23 | 21.45 | 0 | 88.2 | 10.59 | 7.68 | 2.03 | 2.13 |
| Cheste | 03/05/2026 | 0.78 | SE | 10.58 | 15.13 | 14.42 | 16.89 | 0 | 96.1 | 3.49 | 3.66 | 2.2 | 0.96 |
| Tavernes de la Valldigna | 03/05/2026 | 3.06 | SE | 16.16 | 18.26 | 16.48 | 22.4 | 0 | 85 | 10.46 | 9.13 | 0.4 | 2.19 |
| Castelló | 03/05/2026 | 1.74 | NE | 12.66 | 18.09 | 16.36 | 22.09 | 0 | 85.4 | 7.61 | 8.61 | 0.8 | 1.72 |
© Copyright 2011, Instituto Valenciano de Investigaciones Agrarias.
Los datos meteorológicos ofrecidos es esta página son informativos, por lo que carecen de carácter oficial. Los datos son publicados automáticamente y, por lo tanto, pueden no estar sujetos a una completa validación.
|
Cargando ...espere por favor... |